createdAt,value
2019-01-25T00:00:29.803Z,99.77
2019-01-25T00:02:57.826Z,100.07
2019-01-25T00:05:23.998Z,104.50
2019-01-25T00:07:50.143Z,97.87
2019-01-25T00:10:16.290Z,103.17
2019-01-25T00:12:42.430Z,99.83
2019-01-25T00:15:09.990Z,100.67
2019-01-25T00:17:37.133Z,111.27
2019-01-25T00:20:08.712Z,107.67
2019-01-25T00:22:34.940Z,114.10
2019-01-25T00:25:01.426Z,98.67
2019-01-25T00:27:27.817Z,107.53
2019-01-25T00:29:53.967Z,104.37
2019-01-25T00:32:20.110Z,108.43
2019-01-25T00:34:46.254Z,104.87
2019-01-25T00:37:12.423Z,111.67
2019-01-25T00:39:38.560Z,105.67
2019-01-25T00:42:04.705Z,111.20
2019-01-25T00:44:31.098Z,105.13
2019-01-25T00:46:57.535Z,106.77
2019-01-25T00:49:23.682Z,110.50
2019-01-25T00:51:49.822Z,102.73
2019-01-25T00:54:16.226Z,103.93
2019-01-25T00:56:42.374Z,114.27
2019-01-25T00:59:08.519Z,101.80
2019-01-25T01:01:34.678Z,113.30
2019-01-25T01:04:00.855Z,107.27
2019-01-25T01:06:27.122Z,106.27
2019-01-25T01:08:53.594Z,105.63
2019-01-25T01:11:19.733Z,109.67
2019-01-25T01:13:45.879Z,106.80
2019-01-25T01:16:12.027Z,111.17
2019-01-25T01:18:38.171Z,102.60
2019-01-25T01:21:04.323Z,99.73
2019-01-25T01:23:30.495Z,103.30
2019-01-25T01:25:56.886Z,105.70
2019-01-25T01:28:23.047Z,107.07
2019-01-25T01:30:49.454Z,110.50
2019-01-25T01:33:15.871Z,108.40
2019-01-25T01:35:42.024Z,113.60
2019-01-25T01:38:08.178Z,100.90
2019-01-25T01:40:34.358Z,107.40
2019-01-25T01:43:00.493Z,99.43
2019-01-25T01:45:26.634Z,105.80
2019-01-25T01:47:52.770Z,111.83
2019-01-25T01:50:19.181Z,102.17
2019-01-25T01:52:46.412Z,106.90
2019-01-25T01:55:12.614Z,98.43
2019-01-25T01:57:38.768Z,100.13
2019-01-25T02:00:08.734Z,102.20
2019-01-25T02:02:34.891Z,105.43
2019-01-25T02:05:01.750Z,104.00
2019-01-25T02:07:27.948Z,110.73
2019-01-25T02:09:54.191Z,102.07
2019-01-25T02:12:20.668Z,108.00
2019-01-25T02:14:46.804Z,107.83
2019-01-25T02:17:12.958Z,102.73
2019-01-25T02:19:40.115Z,109.57
2019-01-25T02:22:07.816Z,108.63
2019-01-25T02:24:34.227Z,108.80
2019-01-25T02:27:00.386Z,111.13
2019-01-25T02:29:26.527Z,96.63
2019-01-25T02:31:52.681Z,110.37
2019-01-25T02:34:18.834Z,115.90
2019-01-25T02:36:45.003Z,118.33
2019-01-25T02:39:11.161Z,113.10
2019-01-25T02:41:37.315Z,118.23
2019-01-25T02:44:03.559Z,109.47
2019-01-25T02:46:29.695Z,124.00
2019-01-25T02:48:56.147Z,114.07
2019-01-25T02:51:22.294Z,110.00
2019-01-25T02:53:48.444Z,117.20
2019-01-25T02:56:15.698Z,112.30
2019-01-25T02:58:41.856Z,117.60
2019-01-25T03:01:08.021Z,118.87
2019-01-25T03:03:34.172Z,113.27
2019-01-25T03:06:00.343Z,106.83
2019-01-25T03:08:26.502Z,114.30
2019-01-25T03:10:52.644Z,118.80
2019-01-25T03:13:19.059Z,117.83
2019-01-25T03:15:45.238Z,112.37
2019-01-25T03:18:11.376Z,122.57
2019-01-25T03:20:37.552Z,113.37
2019-01-25T03:23:03.702Z,132.00
2019-01-25T03:25:29.883Z,113.43
2019-01-25T03:27:56.019Z,117.43
2019-01-25T03:30:23.775Z,113.77
2019-01-25T03:32:49.918Z,132.13
2019-01-25T03:35:18.000Z,121.87
2019-01-25T03:37:44.147Z,117.50
2019-01-25T03:40:15.655Z,119.70
2019-01-25T03:42:41.803Z,113.93
2019-01-25T03:45:10.057Z,115.13
2019-01-25T03:47:36.232Z,116.10
2019-01-25T03:50:06.240Z,120.07
2019-01-25T03:52:32.392Z,124.37
2019-01-25T03:54:58.535Z,123.00
2019-01-25T03:57:24.681Z,135.40
2019-01-25T03:59:50.858Z,116.40
2019-01-25T04:02:17.005Z,116.20
2019-01-25T04:04:43.155Z,111.87
2019-01-25T04:07:09.302Z,116.70
2019-01-25T04:09:35.448Z,111.27
2019-01-25T04:12:01.607Z,117.33
2019-01-25T04:14:27.748Z,109.67
2019-01-25T04:16:53.920Z,105.60
2019-01-25T04:19:20.073Z,111.03
2019-01-25T04:21:46.553Z,112.60
2019-01-25T04:24:12.742Z,107.30
2019-01-25T04:26:38.887Z,114.63
2019-01-25T04:29:05.048Z,112.37
2019-01-25T04:31:31.190Z,122.77
2019-01-25T04:33:57.338Z,108.90
2019-01-25T04:36:23.501Z,119.23
2019-01-25T04:38:49.656Z,122.60
2019-01-25T04:41:15.803Z,114.07
2019-01-25T04:43:42.312Z,117.17
2019-01-25T04:46:08.474Z,110.57
2019-01-25T04:48:34.623Z,118.30
2019-01-25T04:51:04.588Z,108.07
2019-01-25T04:53:33.655Z,104.93
2019-01-25T04:56:00.230Z,97.73
2019-01-25T04:58:26.465Z,103.43
2019-01-25T05:00:52.607Z,104.30
2019-01-25T05:03:18.770Z,108.13
2019-01-25T05:05:45.324Z,108.93
2019-01-25T05:08:16.370Z,113.93
2019-01-25T05:10:42.983Z,103.13
2019-01-25T05:13:09.142Z,114.77
2019-01-25T05:15:35.304Z,104.67
2019-01-25T05:18:03.170Z,106.57
2019-01-25T05:20:29.318Z,111.87
2019-01-25T05:23:03.312Z,108.33
2019-01-25T05:25:29.463Z,111.87
2019-01-25T05:27:55.613Z,102.57
2019-01-25T05:30:22.777Z,109.77
2019-01-25T05:32:48.930Z,103.30
2019-01-25T05:35:15.428Z,110.00
2019-01-25T05:37:41.587Z,118.03
2019-01-25T05:40:10.059Z,112.33
2019-01-25T05:42:36.235Z,103.23
2019-01-25T05:45:11.832Z,119.30
2019-01-25T05:47:38.002Z,121.43
2019-01-25T05:50:07.951Z,120.33
2019-01-25T05:52:34.118Z,112.00
2019-01-25T05:55:00.291Z,119.63
2019-01-25T05:57:26.439Z,111.33
2019-01-25T05:59:52.578Z,119.63
2019-01-25T06:02:19.035Z,121.60
2019-01-25T06:04:45.176Z,122.77
2019-01-25T06:07:11.330Z,120.17
2019-01-25T06:09:37.511Z,124.73
2019-01-25T06:12:03.647Z,120.80
2019-01-25T06:14:29.826Z,124.33
2019-01-25T06:16:55.971Z,132.17
2019-01-25T06:19:22.150Z,123.97
2019-01-25T06:21:49.141Z,126.03
2019-01-25T06:24:15.292Z,125.60
2019-01-25T06:26:43.753Z,144.60
2019-01-25T06:29:10.150Z,157.83
2019-01-25T06:31:36.594Z,142.73
2019-01-25T06:34:02.788Z,147.60
2019-01-25T06:36:28.947Z,156.00
2019-01-25T06:38:55.100Z,152.53
2019-01-25T06:41:21.252Z,155.10
2019-01-25T06:43:47.730Z,158.13
2019-01-25T06:46:13.890Z,158.33
2019-01-25T06:48:40.307Z,166.57
2019-01-25T06:51:06.464Z,171.97
2019-01-25T06:53:32.613Z,172.37
2019-01-25T06:55:58.771Z,177.40
2019-01-25T06:58:32.651Z,160.57
2019-01-25T07:01:03.259Z,177.57
2019-01-25T07:03:29.391Z,162.53
2019-01-25T07:05:55.554Z,153.90
2019-01-25T07:08:29.214Z,177.37
2019-01-25T07:10:55.411Z,173.87
2019-01-25T07:13:21.555Z,162.73
2019-01-25T07:15:48.060Z,168.27
2019-01-25T07:18:14.202Z,164.37
2019-01-25T07:20:40.740Z,172.93
2019-01-25T07:23:07.168Z,165.33
2019-01-25T07:25:33.322Z,215.72
2019-01-25T07:27:59.500Z,169.20
2019-01-25T07:30:25.623Z,185.03
2019-01-25T07:32:51.800Z,166.20
2019-01-25T07:35:17.959Z,169.20
2019-01-25T07:37:44.190Z,173.37
2019-01-25T07:40:10.484Z,178.03
2019-01-25T07:42:36.977Z,190.17
2019-01-25T07:45:06.344Z,180.67
2019-01-25T07:47:32.833Z,173.20
2019-01-25T07:49:59.143Z,179.27
2019-01-25T07:52:25.301Z,194.67
2019-01-25T07:54:51.464Z,195.10
2019-01-25T07:57:17.596Z,182.97
2019-01-25T07:59:44.028Z,165.60
2019-01-25T08:02:10.172Z,165.03
2019-01-25T08:04:36.315Z,195.43
2019-01-25T08:07:02.458Z,177.40
2019-01-25T08:09:28.605Z,183.23
2019-01-25T08:11:54.980Z,191.63
2019-01-25T08:14:21.167Z,183.53
2019-01-25T08:16:47.363Z,184.23
2019-01-25T08:19:13.521Z,174.17
2019-01-25T08:21:39.683Z,190.63
2019-01-25T08:24:05.847Z,190.73
2019-01-25T08:26:32.216Z,185.93
2019-01-25T08:28:58.379Z,184.53
2019-01-25T08:31:24.537Z,178.93
2019-01-25T08:33:50.685Z,181.50
2019-01-25T08:36:16.868Z,197.77
2019-01-25T08:38:43.100Z,187.23
2019-01-25T08:41:09.267Z,170.10
2019-01-25T08:43:35.456Z,179.70
2019-01-25T08:46:01.717Z,176.97
2019-01-25T08:48:29.191Z,179.73
2019-01-25T08:50:55.551Z,180.60
2019-01-25T08:53:21.732Z,176.63
2019-01-25T08:55:47.993Z,179.77
2019-01-25T08:58:14.188Z,196.87
2019-01-25T09:00:40.391Z,190.07
2019-01-25T09:03:11.780Z,194.30
2019-01-25T09:05:38.295Z,168.10
2019-01-25T09:08:04.454Z,189.80
2019-01-25T09:10:30.618Z,198.03
2019-01-25T09:12:57.062Z,186.87
2019-01-25T09:15:26.612Z,187.33
2019-01-25T09:17:52.777Z,189.47
2019-01-25T09:20:20.247Z,187.97
2019-01-25T09:22:47.763Z,183.67
2019-01-25T09:25:13.922Z,178.37
2019-01-25T09:27:40.092Z,182.97
2019-01-25T09:30:14.793Z,172.00
2019-01-25T09:32:40.927Z,176.43
2019-01-25T09:35:07.384Z,172.90
2019-01-25T09:37:33.550Z,172.40
2019-01-25T09:39:59.919Z,208.45
2019-01-25T09:42:31.002Z,187.83
2019-01-25T09:44:54.149Z,169.20
2019-01-25T09:47:20.294Z,186.10
2019-01-25T09:49:46.467Z,168.63
2019-01-25T09:52:12.612Z,178.37
2019-01-25T09:54:42.008Z,169.27
2019-01-25T09:57:08.330Z,156.30
2019-01-25T09:59:34.879Z,162.27
2019-01-25T10:02:01.024Z,174.80
2019-01-25T10:04:27.434Z,179.20
2019-01-25T10:06:53.871Z,162.63
2019-01-25T10:09:20.040Z,158.73
2019-01-25T10:11:46.218Z,166.20
2019-01-25T10:14:12.615Z,157.87
2019-01-25T10:16:39.071Z,157.13
2019-01-25T10:19:06.347Z,185.60
2019-01-25T10:21:32.508Z,166.07
2019-01-25T10:23:58.663Z,164.83
2019-01-25T10:26:24.815Z,161.80
2019-01-25T10:28:50.954Z,165.70
2019-01-25T10:31:17.094Z,145.73
2019-01-25T10:33:43.239Z,156.97
2019-01-25T10:36:09.385Z,152.37
2019-01-25T10:38:35.543Z,149.23
2019-01-25T10:41:01.692Z,131.27
2019-01-25T10:43:27.870Z,153.27
2019-01-25T10:45:54.026Z,132.20
2019-01-25T10:48:20.199Z,140.80
2019-01-25T10:50:46.356Z,115.43
2019-01-25T10:53:12.507Z,118.30
2019-01-25T10:55:39.144Z,109.40
2019-01-25T10:58:05.664Z,104.60
2019-01-25T11:00:31.814Z,100.93
2019-01-25T11:02:58.651Z,93.53
2019-01-25T11:05:29.211Z,80.90
2019-01-25T11:07:55.827Z,73.07
2019-01-25T11:10:21.986Z,71.30
2019-01-25T11:12:48.179Z,74.77
2019-01-25T11:15:17.336Z,68.63
2019-01-25T11:17:43.501Z,68.13
2019-01-25T11:20:13.299Z,75.47
2019-01-25T11:22:39.543Z,70.63
2019-01-25T11:25:15.559Z,66.13
2019-01-25T11:27:41.723Z,60.47
2019-01-25T11:30:11.295Z,53.77
2019-01-25T11:32:37.434Z,54.37
2019-01-25T11:35:04.315Z,50.60
2019-01-25T11:37:30.470Z,49.27
2019-01-25T11:39:56.879Z,45.73
2019-01-25T11:42:23.014Z,45.27
2019-01-25T11:44:49.212Z,45.83
2019-01-25T11:47:15.391Z,40.33
2019-01-25T11:49:41.531Z,43.73
2019-01-25T11:52:07.707Z,44.87
2019-01-25T11:54:33.867Z,43.43
2019-01-25T11:57:00.229Z,42.17
2019-01-25T11:59:26.382Z,44.43
2019-01-25T12:01:52.533Z,47.47
2019-01-25T12:04:18.675Z,46.90
2019-01-25T12:06:44.816Z,44.30
2019-01-25T12:09:11.220Z,43.13
2019-01-25T12:11:37.616Z,45.57
2019-01-25T12:14:04.004Z,50.20
2019-01-25T12:16:30.142Z,44.87
2019-01-25T12:18:56.283Z,44.70
2019-01-25T12:21:22.456Z,43.63
2019-01-25T12:23:48.615Z,40.47
2019-01-25T12:26:15.115Z,44.43
2019-01-25T12:28:41.269Z,51.23
2019-01-25T12:31:07.670Z,49.17
2019-01-25T12:33:33.815Z,54.27
2019-01-25T12:36:00.320Z,50.17
2019-01-25T12:38:27.519Z,49.13
2019-01-25T12:40:53.673Z,53.07
2019-01-25T12:43:24.201Z,63.00
2019-01-25T12:45:50.191Z,48.43
2019-01-25T12:48:15.973Z,47.77
2019-01-25T12:50:49.019Z,43.50
2019-01-25T12:53:14.332Z,44.27
2019-01-25T12:55:40.574Z,39.17
2019-01-25T12:58:06.730Z,46.50
2019-01-25T13:00:32.934Z,41.33
2019-01-25T13:02:59.306Z,40.43
2019-01-25T13:05:25.467Z,38.77
2019-01-25T13:07:51.870Z,40.40
2019-01-25T13:10:20.528Z,40.43
2019-01-25T13:12:46.676Z,36.23
2019-01-25T13:15:12.836Z,35.77
2019-01-25T13:17:39.005Z,39.13
2019-01-25T13:20:11.696Z,39.23
2019-01-25T13:22:37.835Z,39.23
2019-01-25T13:25:04.048Z,40.10
2019-01-25T13:27:30.364Z,35.23
2019-01-25T13:29:56.657Z,38.33
2019-01-25T13:32:22.943Z,39.17
2019-01-25T13:34:49.252Z,35.80
2019-01-25T13:37:15.638Z,37.10
2019-01-25T13:39:42.154Z,39.67
2019-01-25T13:42:08.305Z,35.73
2019-01-25T13:44:34.520Z,36.50
2019-01-25T13:47:00.658Z,32.23
2019-01-25T13:49:27.202Z,34.27
2019-01-25T13:51:53.343Z,35.40
2019-01-25T13:54:19.544Z,33.33
2019-01-25T13:56:45.880Z,32.73
2019-01-25T13:59:12.416Z,33.47
2019-01-25T14:01:38.558Z,31.77
2019-01-25T14:04:04.873Z,31.43
2019-01-25T14:06:31.380Z,31.43
2019-01-25T14:08:57.807Z,30.80
2019-01-25T14:11:24.075Z,29.87
2019-01-25T14:13:50.247Z,31.47
2019-01-25T14:16:16.383Z,31.63
2019-01-25T14:18:45.041Z,28.83
2019-01-25T14:21:11.512Z,32.00
2019-01-25T14:23:37.960Z,32.33
2019-01-25T14:26:04.180Z,31.77
2019-01-25T14:28:30.324Z,31.70
2019-01-25T14:30:56.878Z,31.50
2019-01-25T14:33:23.423Z,31.47
2019-01-25T14:35:50.084Z,32.83
2019-01-25T14:38:16.566Z,33.30
2019-01-25T14:40:42.870Z,30.50
2019-01-25T14:43:09.010Z,33.87
2019-01-25T14:45:35.192Z,30.13
2019-01-25T14:48:01.451Z,31.43
2019-01-25T14:50:29.778Z,29.87
2019-01-25T14:52:55.919Z,31.13
2019-01-25T14:55:22.519Z,31.70
2019-01-25T14:57:48.830Z,32.37
2019-01-25T15:00:15.427Z,28.50
2019-01-25T15:02:41.860Z,29.73
2019-01-25T15:05:16.700Z,31.93
2019-01-25T15:07:43.031Z,30.60
2019-01-25T15:10:12.246Z,27.40
2019-01-25T15:12:38.900Z,32.77
2019-01-25T15:15:08.658Z,30.47
2019-01-25T15:17:35.515Z,31.07
2019-01-25T15:20:05.435Z,29.30
2019-01-25T15:22:32.156Z,32.13
2019-01-25T15:24:58.651Z,28.27
2019-01-25T15:27:25.226Z,31.30
2019-01-25T15:29:51.970Z,33.40
2019-01-25T15:32:18.742Z,31.13
2019-01-25T15:34:45.340Z,34.33
2019-01-25T15:37:12.011Z,36.13
2019-01-25T15:39:38.896Z,36.37
2019-01-25T15:42:05.337Z,34.30
2019-01-25T15:44:31.926Z,39.37
2019-01-25T15:46:58.334Z,42.00
2019-01-25T15:49:25.139Z,39.33
2019-01-25T15:51:51.611Z,36.13
2019-01-25T15:54:18.226Z,38.70
2019-01-25T15:56:44.771Z,45.67
2019-01-25T15:59:11.358Z,39.90
2019-01-25T16:01:38.211Z,40.53
2019-01-25T16:04:04.840Z,43.10
2019-01-25T16:06:31.294Z,45.37
2019-01-25T16:08:57.936Z,43.60
2019-01-25T16:11:24.767Z,44.13
2019-01-25T16:13:51.511Z,41.37
2019-01-25T16:16:18.196Z,48.30
2019-01-25T16:18:44.778Z,62.13
2019-01-25T16:21:12.012Z,43.10
2019-01-25T16:23:38.629Z,48.30
2019-01-25T16:26:05.221Z,47.40
2019-01-25T16:28:31.914Z,58.63
2019-01-25T16:30:58.539Z,50.37
2019-01-25T16:33:25.427Z,53.33
2019-01-25T16:35:51.924Z,51.40
2019-01-25T16:38:18.374Z,51.47
2019-01-25T16:40:45.015Z,58.47
2019-01-25T16:43:12.211Z,57.77
2019-01-25T16:45:40.255Z,52.00
2019-01-25T16:48:07.870Z,57.27
2019-01-25T16:50:36.072Z,55.87
2019-01-25T16:53:04.731Z,58.73
2019-01-25T16:55:31.597Z,52.57
2019-01-25T16:57:58.416Z,57.70
2019-01-25T17:00:28.862Z,56.03
2019-01-25T17:02:55.770Z,51.07
2019-01-25T17:05:22.256Z,58.93
2019-01-25T17:07:48.912Z,59.00
2019-01-25T17:10:15.456Z,61.87
2019-01-25T17:12:41.619Z,63.80
2019-01-25T17:15:09.275Z,57.53
2019-01-25T17:17:35.749Z,62.07
2019-01-25T17:20:03.620Z,62.20
2019-01-25T17:22:30.767Z,63.00
2019-01-25T17:24:56.948Z,58.50
2019-01-25T17:27:23.108Z,65.57
2019-01-25T17:29:49.268Z,62.37
2019-01-25T17:32:16.274Z,59.27
2019-01-25T17:34:43.205Z,62.13
2019-01-25T17:37:10.111Z,67.73
2019-01-25T17:39:37.024Z,61.03
2019-01-25T17:42:03.963Z,60.50
2019-01-25T17:44:31.829Z,62.07
2019-01-25T17:46:58.879Z,65.07
2019-01-25T17:49:26.831Z,56.20
2019-01-25T17:51:53.795Z,58.70
2019-01-25T17:54:20.766Z,58.40
2019-01-25T17:56:47.506Z,58.77
2019-01-25T17:59:15.405Z,58.03
2019-01-25T18:01:43.408Z,61.27
2019-01-25T18:04:10.379Z,59.77
2019-01-25T18:06:37.410Z,54.00
2019-01-25T18:09:05.364Z,52.73
2019-01-25T18:11:33.095Z,58.50
2019-01-25T18:13:59.914Z,60.97
2019-01-25T18:16:26.983Z,58.80
2019-01-25T18:18:53.774Z,59.10
2019-01-25T18:21:20.722Z,56.50
2019-01-25T18:23:47.745Z,55.80
2019-01-25T18:26:14.600Z,64.60
2019-01-25T18:28:42.532Z,57.93
2019-01-25T18:31:13.123Z,56.90
2019-01-25T18:33:40.063Z,58.70
2019-01-25T18:36:07.196Z,56.97
2019-01-25T18:38:34.670Z,54.03
2019-01-25T18:41:01.727Z,53.27
2019-01-25T18:43:28.788Z,56.40
2019-01-25T18:45:55.804Z,50.70
2019-01-25T18:48:23.187Z,52.37
2019-01-25T18:50:50.532Z,51.43
2019-01-25T18:53:17.375Z,50.93
2019-01-25T18:55:44.327Z,53.77
2019-01-25T18:58:11.342Z,51.47
2019-01-25T19:00:38.294Z,55.23
2019-01-25T19:03:05.275Z,49.73
2019-01-25T19:05:32.383Z,42.47
2019-01-25T19:07:59.227Z,43.57
2019-01-25T19:10:28.001Z,47.37
2019-01-25T19:12:55.615Z,43.77
2019-01-25T19:15:26.058Z,49.83
2019-01-25T19:17:53.265Z,42.70
2019-01-25T19:20:21.501Z,50.20
2019-01-25T19:22:49.095Z,46.47
2019-01-25T19:25:16.491Z,50.53
2019-01-25T19:27:43.715Z,47.13
2019-01-25T19:30:26.978Z,49.17
2019-01-25T19:32:53.875Z,49.73
2019-01-25T19:35:20.692Z,57.30
2019-01-25T19:37:48.081Z,48.67
2019-01-25T19:40:21.727Z,53.23
2019-01-25T19:42:48.855Z,55.80
2019-01-25T19:45:16.072Z,52.23
2019-01-25T19:47:43.336Z,59.17
2019-01-25T19:50:13.279Z,54.27
2019-01-25T19:52:40.229Z,49.87
2019-01-25T19:55:10.740Z,54.43
2019-01-25T19:57:37.703Z,49.07
2019-01-25T20:00:16.922Z,48.03
2019-01-25T20:02:44.259Z,45.50
2019-01-25T20:05:15.428Z,44.47
2019-01-25T20:07:42.368Z,45.33
2019-01-25T20:10:10.750Z,46.23
2019-01-25T20:12:38.136Z,47.90
2019-01-25T20:15:08.971Z,42.60
2019-01-25T20:17:36.968Z,48.83
2019-01-25T20:20:07.852Z,46.93
2019-01-25T20:22:34.768Z,45.40
2019-01-25T20:25:01.699Z,45.67
2019-01-25T20:27:29.814Z,46.43
2019-01-25T20:29:56.568Z,43.50
2019-01-25T20:32:23.584Z,45.37
2019-01-25T20:34:50.508Z,46.80
2019-01-25T20:37:17.512Z,44.23
2019-01-25T20:39:44.857Z,45.83
2019-01-25T20:42:11.766Z,43.67
2019-01-25T20:44:39.340Z,45.23
2019-01-25T20:47:06.288Z,45.37
2019-01-25T20:49:33.432Z,44.87
2019-01-25T20:52:00.364Z,44.00
2019-01-25T20:54:27.539Z,50.07
2019-01-25T20:56:54.448Z,48.33
2019-01-25T20:59:21.518Z,49.23
2019-01-25T21:01:48.307Z,49.90
2019-01-25T21:04:15.107Z,46.40
2019-01-25T21:06:41.866Z,54.20
2019-01-25T21:09:10.182Z,54.43
2019-01-25T21:11:37.067Z,49.97
2019-01-25T21:14:04.096Z,42.43
2019-01-25T21:16:31.050Z,48.43
2019-01-25T21:18:58.208Z,46.57
2019-01-25T21:21:25.431Z,41.50
2019-01-25T21:23:52.234Z,45.27
2019-01-25T21:26:19.147Z,44.77
2019-01-25T21:28:46.147Z,42.47
2019-01-25T21:31:13.240Z,40.97
2019-01-25T21:33:40.042Z,38.20
2019-01-25T21:36:07.056Z,42.17
2019-01-25T21:38:33.962Z,39.50
2019-01-25T21:41:00.819Z,38.27
2019-01-25T21:43:28.048Z,45.23
2019-01-25T21:45:54.999Z,36.90
2019-01-25T21:48:22.394Z,44.20
2019-01-25T21:50:49.312Z,38.50
2019-01-25T21:53:16.439Z,39.13
2019-01-25T21:55:43.466Z,40.83
2019-01-25T21:58:10.358Z,37.57
2019-01-25T22:00:37.049Z,43.47
2019-01-25T22:03:03.759Z,43.43
2019-01-25T22:05:30.610Z,41.50
2019-01-25T22:07:57.455Z,43.97
2019-01-25T22:10:29.527Z,40.23
2019-01-25T22:12:56.334Z,39.03
2019-01-25T22:15:23.076Z,38.87
2019-01-25T22:17:49.822Z,38.77
2019-01-25T22:20:18.918Z,37.83
2019-01-25T22:22:45.655Z,42.77
2019-01-25T22:25:12.372Z,37.97
2019-01-25T22:27:38.947Z,38.87
2019-01-25T22:30:09.191Z,39.97
2019-01-25T22:32:35.620Z,44.23
2019-01-25T22:35:02.071Z,38.80
2019-01-25T22:37:28.379Z,42.53
2019-01-25T22:39:55.104Z,42.87
2019-01-25T22:42:21.420Z,42.03
2019-01-25T22:44:47.961Z,39.33
2019-01-25T22:47:20.307Z,46.40
2019-01-25T22:49:42.480Z,48.50
2019-01-25T22:52:08.829Z,48.83
2019-01-25T22:54:35.117Z,46.40
2019-01-25T22:57:01.267Z,49.57
2019-01-25T22:59:27.413Z,47.37
2019-01-25T23:01:53.567Z,47.87
2019-01-25T23:04:26.284Z,52.50
2019-01-25T23:06:52.716Z,50.37
2019-01-25T23:09:22.660Z,49.93
2019-01-25T23:11:48.820Z,50.57
2019-01-25T23:14:14.987Z,49.00
2019-01-25T23:16:41.151Z,57.37
2019-01-25T23:19:07.295Z,55.50
2019-01-25T23:21:33.471Z,52.07
2019-01-25T23:23:59.918Z,61.97
2019-01-25T23:26:26.062Z,64.10
2019-01-25T23:28:52.247Z,59.07
2019-01-25T23:31:18.390Z,59.17
2019-01-25T23:33:44.547Z,59.70
2019-01-25T23:36:10.726Z,59.27
2019-01-25T23:38:37.183Z,61.20
2019-01-25T23:41:03.344Z,68.77
2019-01-25T23:43:29.533Z,68.47
2019-01-25T23:45:55.658Z,73.47
2019-01-25T23:48:21.815Z,70.47
2019-01-25T23:50:47.986Z,72.83
2019-01-25T23:53:14.169Z,80.27
2019-01-25T23:55:40.327Z,81.13
2019-01-25T23:58:06.502Z,92.37
